createdAt,value
2019-02-18T00:02:36.362Z,-1.2
2019-02-18T00:07:36.464Z,-1.2
2019-02-18T00:12:36.351Z,-1.2
2019-02-18T00:17:36.543Z,-1.3
2019-02-18T00:22:36.355Z,-1.3
2019-02-18T00:27:36.424Z,-1.3
2019-02-18T00:32:36.363Z,-1.3
2019-02-18T00:37:36.475Z,-1.3
2019-02-18T00:42:36.367Z,-1.4
2019-02-18T00:47:36.535Z,-1.4
2019-02-18T00:52:36.381Z,-1.4
2019-02-18T00:57:36.334Z,-1.4
2019-02-18T01:02:36.642Z,-1.5
2019-02-18T01:07:36.387Z,-1.5
2019-02-18T01:12:36.504Z,-1.5
2019-02-18T01:17:36.369Z,-1.5
2019-02-18T01:22:36.577Z,-1.6
2019-02-18T01:27:36.609Z,-1.6
2019-02-18T01:32:36.553Z,-1.7
2019-02-18T01:37:45.151Z,-1.7
2019-02-18T01:42:36.362Z,-1.8
2019-02-18T01:47:36.512Z,-1.8
2019-02-18T01:52:36.419Z,-1.8
2019-02-18T01:57:36.580Z,-1.9
2019-02-18T02:02:36.409Z,-1.9
2019-02-18T02:07:36.572Z,-2
2019-02-18T02:12:36.617Z,-2
2019-02-18T02:17:36.414Z,-2
2019-02-18T02:22:36.414Z,-2.1
2019-02-18T02:27:36.423Z,-2.1
2019-02-18T02:32:36.405Z,-2.1
2019-02-18T02:37:36.412Z,-2.2
2019-02-18T02:42:36.621Z,-2.2
2019-02-18T02:47:36.542Z,-2.3
2019-02-18T02:52:36.565Z,-2.3
2019-02-18T02:57:36.450Z,-2.3
2019-02-18T03:02:36.437Z,-2.5
2019-02-18T03:07:36.443Z,-2.5
2019-02-18T03:12:36.617Z,-2.5
2019-02-18T03:17:36.452Z,-2.5
2019-02-18T03:22:36.579Z,-2.5
2019-02-18T03:27:36.610Z,-2.6
2019-02-18T03:32:36.578Z,-2.6
2019-02-18T03:37:36.445Z,-2.7
2019-02-18T03:42:36.465Z,-2.7
2019-02-18T03:47:36.443Z,-2.7
2019-02-18T03:52:36.461Z,-2.8
2019-02-18T03:57:36.613Z,-2.8
2019-02-18T04:02:36.465Z,-2.8
2019-02-18T04:07:36.707Z,-2.9
2019-02-18T04:12:36.615Z,-3
2019-02-18T04:17:36.471Z,-3
2019-02-18T04:22:36.586Z,-3
2019-02-18T04:27:36.611Z,-3
2019-02-18T04:32:36.485Z,-3
2019-02-18T04:37:36.471Z,-3
2019-02-18T04:42:36.727Z,-3.1
2019-02-18T04:47:36.647Z,-3.1
2019-02-18T04:52:36.512Z,-3.2
2019-02-18T04:57:36.756Z,-3.2
2019-02-18T05:02:36.646Z,-3.3
2019-02-18T05:07:36.516Z,-3.3
2019-02-18T05:12:36.725Z,-3.3
2019-02-18T05:17:36.507Z,-3.3
2019-02-18T05:22:36.515Z,-3.3
2019-02-18T05:27:36.493Z,-3.4
2019-02-18T05:32:36.535Z,-3.4
2019-02-18T05:37:36.524Z,-3.4
2019-02-18T05:42:36.517Z,-3.5
2019-02-18T05:47:36.537Z,-3.5
2019-02-18T05:52:36.521Z,-3.5
2019-02-18T05:57:36.509Z,-3.5
2019-02-18T06:02:36.531Z,-3.5
2019-02-18T06:07:36.495Z,-3.5
2019-02-18T06:12:36.542Z,-3.5
2019-02-18T06:17:36.681Z,-3.5
2019-02-18T06:22:38.438Z,-3.5
2019-02-18T06:27:36.540Z,-3.5
2019-02-18T06:32:36.675Z,-3.5
2019-02-18T06:37:36.683Z,-3.4
2019-02-18T06:42:36.745Z,-3.4
2019-02-18T06:47:36.550Z,-3.2
2019-02-18T06:52:36.551Z,-3.1
2019-02-18T06:57:36.546Z,-2.9
2019-02-18T07:02:36.774Z,-2.6
2019-02-18T07:07:36.706Z,-2.5
2019-02-18T07:12:36.726Z,-2.3
2019-02-18T07:17:36.586Z,-2.1
2019-02-18T07:22:36.570Z,-1.9
2019-02-18T07:27:36.604Z,-1.6
2019-02-18T07:32:37.806Z,-1.4
2019-02-18T07:37:36.805Z,-1.2
2019-02-18T07:42:36.684Z,-1
2019-02-18T07:47:36.596Z,-0.8
2019-02-18T07:52:36.811Z,-0.5
2019-02-18T07:57:36.761Z,-0.3
2019-02-18T08:02:36.592Z,0
2019-02-18T08:07:36.836Z,0.2
2019-02-18T08:12:36.606Z,0.5
2019-02-18T08:17:36.762Z,0.9
2019-02-18T08:22:36.822Z,1.2
2019-02-18T08:27:36.607Z,1.4
2019-02-18T08:32:36.608Z,1.7
2019-02-18T08:37:36.809Z,1.9
2019-02-18T08:42:36.617Z,2.1
2019-02-18T08:47:36.761Z,2.2
2019-02-18T08:52:36.620Z,2.3
2019-02-18T08:57:36.623Z,2.5
2019-02-18T09:02:36.578Z,2.7
2019-02-18T09:07:36.644Z,2.9
2019-02-18T09:12:36.742Z,3.2
2019-02-18T09:17:36.613Z,3.4
2019-02-18T09:22:36.644Z,3.7
2019-02-18T09:27:36.617Z,4.1
2019-02-18T09:32:36.640Z,4.2
2019-02-18T09:37:36.798Z,4.3
2019-02-18T09:42:36.765Z,4.4
2019-02-18T09:47:36.645Z,4.7
2019-02-18T09:52:36.832Z,4.9
2019-02-18T09:57:36.654Z,5.1
2019-02-18T10:02:36.655Z,5.4
2019-02-18T10:07:36.650Z,5.6
2019-02-18T10:12:36.872Z,5.8
2019-02-18T10:17:36.881Z,6
2019-02-18T10:22:36.801Z,6.1
2019-02-18T10:27:36.660Z,6.2
2019-02-18T10:32:36.661Z,6.3
2019-02-18T10:37:36.808Z,6.6
2019-02-18T10:42:36.672Z,6.8
2019-02-18T10:47:36.680Z,7
2019-02-18T10:52:36.648Z,7.1
2019-02-18T10:57:36.683Z,7.3
2019-02-18T11:02:36.684Z,7.4
2019-02-18T11:07:36.919Z,7.5
2019-02-18T11:12:36.698Z,7.6
2019-02-18T11:17:39.025Z,7.7
2019-02-18T11:22:36.808Z,7.9
2019-02-18T11:27:36.679Z,7.9
2019-02-18T11:32:36.698Z,8.1
2019-02-18T11:37:36.917Z,8.1
2019-02-18T11:42:37.593Z,8.3
2019-02-18T11:47:36.721Z,8.4
2019-02-18T11:52:36.931Z,8.5
2019-02-18T11:57:36.708Z,8.5
2019-02-18T12:02:36.717Z,8.6
2019-02-18T12:07:36.878Z,8.7
2019-02-18T12:12:36.731Z,8.7
2019-02-18T12:17:36.875Z,8.8
2019-02-18T12:22:36.730Z,8.9
2019-02-18T12:27:36.721Z,9
2019-02-18T12:32:37.902Z,9.1
2019-02-18T12:37:36.745Z,9.2
2019-02-18T12:42:37.977Z,9.3
2019-02-18T12:47:36.743Z,9.4
2019-02-18T12:52:37.837Z,9.5
2019-02-18T12:57:36.699Z,9.5
2019-02-18T13:02:43.595Z,9.6
2019-02-18T13:07:36.924Z,9.7
2019-02-18T13:12:36.769Z,9.8
2019-02-18T13:17:36.758Z,9.8
2019-02-18T13:22:36.750Z,9.9
2019-02-18T13:27:36.754Z,9.8
2019-02-18T13:32:36.767Z,9.9
2019-02-18T13:37:36.789Z,9.9
2019-02-18T13:42:36.973Z,9.9
2019-02-18T13:47:36.720Z,9.9
2019-02-18T13:52:36.771Z,10
2019-02-18T13:57:36.782Z,10
2019-02-18T14:02:36.792Z,10
2019-02-18T14:07:36.792Z,10
2019-02-18T14:12:36.785Z,10
2019-02-18T14:17:36.799Z,10
2019-02-18T14:22:36.786Z,10
2019-02-18T14:27:36.785Z,10
2019-02-18T14:32:36.783Z,10
2019-02-18T14:37:36.792Z,10
2019-02-18T14:42:36.795Z,10
2019-02-18T14:47:36.810Z,9.9
2019-02-18T14:52:36.821Z,9.9
2019-02-18T14:57:36.812Z,9.9
2019-02-18T15:02:36.817Z,9.9
2019-02-18T15:07:36.824Z,9.8
2019-02-18T15:12:36.803Z,9.8
2019-02-18T15:17:36.799Z,9.7
2019-02-18T15:22:36.822Z,9.6
2019-02-18T15:27:36.835Z,9.6
2019-02-18T15:32:36.789Z,9.5
2019-02-18T15:37:36.778Z,9.4
2019-02-18T15:42:42.040Z,9.3
2019-02-18T15:47:36.857Z,9.2
2019-02-18T15:52:36.851Z,9
2019-02-18T15:57:36.837Z,8.9
2019-02-18T16:02:36.849Z,8.7
2019-02-18T16:07:36.874Z,8.5
2019-02-18T16:12:37.053Z,8.3
2019-02-18T16:17:36.877Z,8
2019-02-18T16:22:36.872Z,7.9
2019-02-18T16:27:37.032Z,7.7
2019-02-18T16:32:37.002Z,7.4
2019-02-18T16:37:36.818Z,7.2
2019-02-18T16:42:36.882Z,6.9
2019-02-18T16:47:36.892Z,6.6
2019-02-18T16:52:37.175Z,6.3
2019-02-18T16:57:38.209Z,6.1
2019-02-18T17:02:36.867Z,5.9
2019-02-18T17:07:37.272Z,5.6
2019-02-18T17:12:36.897Z,5.3
2019-02-18T17:17:37.049Z,5.2
2019-02-18T17:22:36.906Z,4.9
2019-02-18T17:27:36.895Z,4.7
2019-02-18T17:32:36.840Z,4.6
2019-02-18T17:37:36.896Z,4.3
2019-02-18T17:42:36.877Z,4.2
2019-02-18T17:47:36.900Z,4
2019-02-18T17:52:36.897Z,3.9
2019-02-18T17:57:36.903Z,3.7
2019-02-18T18:02:36.899Z,3.5
2019-02-18T18:07:36.901Z,3.4
2019-02-18T18:12:36.904Z,3.3
2019-02-18T18:17:36.951Z,3.1
2019-02-18T18:22:36.870Z,3
2019-02-18T18:27:36.954Z,2.8
2019-02-18T18:32:37.151Z,2.7
2019-02-18T18:37:37.070Z,2.6
2019-02-18T18:42:36.927Z,2.5
2019-02-18T18:47:37.332Z,2.3
2019-02-18T18:52:36.946Z,2.2
2019-02-18T18:57:36.946Z,2.1
2019-02-18T19:02:36.964Z,2
2019-02-18T19:07:37.167Z,1.9
2019-02-18T19:12:37.301Z,1.8
2019-02-18T19:17:37.080Z,1.7
2019-02-18T19:22:36.984Z,1.6
2019-02-18T19:27:36.969Z,1.5
2019-02-18T19:32:37.166Z,1.4
2019-02-18T19:37:37.016Z,1.4
2019-02-18T19:42:36.999Z,1.3
2019-02-18T19:47:37.466Z,1.2
2019-02-18T19:52:37.482Z,1.1
2019-02-18T19:57:37.138Z,1
2019-02-18T20:02:36.952Z,0.9
2019-02-18T20:07:36.926Z,0.8
2019-02-18T20:12:37.107Z,0.7
2019-02-18T20:17:36.965Z,0.7
2019-02-18T20:22:36.965Z,0.7
2019-02-18T20:27:37.027Z,0.6
2019-02-18T20:32:36.987Z,0.5
2019-02-18T20:37:36.989Z,0.5
2019-02-18T20:42:37.009Z,0.4
2019-02-18T20:47:37.009Z,0.4
2019-02-18T20:52:37.031Z,0.3
2019-02-18T20:57:36.991Z,0.3
2019-02-18T21:02:37.178Z,0.2
2019-02-18T21:07:37.008Z,0.2
2019-02-18T21:12:37.011Z,0.1
2019-02-18T21:17:36.997Z,0.1
2019-02-18T21:22:37.048Z,0
2019-02-18T21:27:37.021Z,0
2019-02-18T21:32:37.026Z,0
2019-02-18T21:37:37.019Z,0
2019-02-18T21:42:37.020Z,0
2019-02-18T21:47:37.015Z,-0.1
2019-02-18T21:52:37.006Z,-0.1
2019-02-18T21:57:37.007Z,-0.2
2019-02-18T22:02:37.037Z,-0.2
2019-02-18T22:07:37.024Z,-0.3
2019-02-18T22:12:37.036Z,-0.4
2019-02-18T22:17:37.035Z,-0.4
2019-02-18T22:22:37.045Z,-0.4
2019-02-18T22:27:36.993Z,-0.5
2019-02-18T22:32:37.116Z,-0.5
2019-02-18T22:37:37.060Z,-0.6
2019-02-18T22:42:37.033Z,-0.6
2019-02-18T22:47:37.055Z,-0.6
2019-02-18T22:52:37.055Z,-0.7
2019-02-18T22:57:37.051Z,-0.7
2019-02-18T23:02:37.051Z,-0.7
2019-02-18T23:07:37.049Z,-0.8
2019-02-18T23:12:37.058Z,-0.9
2019-02-18T23:17:37.061Z,-0.9
2019-02-18T23:22:37.067Z,-1
2019-02-18T23:27:37.092Z,-1
2019-02-18T23:32:37.022Z,-1.1
2019-02-18T23:37:37.056Z,-1.1
2019-02-18T23:42:37.074Z,-1.1
2019-02-18T23:47:37.093Z,-1.1
2019-02-18T23:52:37.042Z,-1.1
2019-02-18T23:57:37.079Z,-1.1
